Time;durP1;ratioP1;P1;durP2;ratioP2;P2;SDS_P1;SDS_P2;PMS_P1;PMS_P2;Temp;Humidity;BMP_temperature;BMP_pressure;BME280_temperature;BME280_humidity;BME280_pressure;Samples;Min_cycle;Max_cycle;Signal;HPM_P1;HPM_P2
2024/02/07 00:14:09;;;;;;;9.20;4.83;;;;;;;8.75;100.00;99058.38;31257646;28;20053;-79
2024/02/07 00:29:11;;;;;;;6.30;4.30;;;;;;;8.46;100.00;99056.50;31255597;28;20087;-79
2024/02/07 00:44:13;;;;;;;9.83;4.50;;;;;;;8.11;100.00;99052.00;31271523;28;20574;-77
2024/02/07 00:59:15;;;;;;;12.10;5.53;;;;;;;7.92;100.00;99036.69;31253820;28;20109;-79
2024/02/07 01:14:18;;;;;;;9.70;4.30;;;;;;;7.85;100.00;99043.03;31256549;28;20079;-80
2024/02/07 01:29:21;;;;;;;10.97;5.20;;;;;;;7.83;100.00;99024.53;31256853;28;20045;-80
2024/02/07 01:44:24;;;;;;;11.17;4.83;;;;;;;8.15;100.00;99012.13;31278175;28;20061;-78
2024/02/07 01:59:26;;;;;;;6.97;4.23;;;;;;;8.14;100.00;99021.41;31282099;28;20050;-78
2024/02/07 02:14:29;;;;;;;7.43;4.70;;;;;;;7.96;100.00;99010.31;31271464;28;20041;-80
2024/02/07 02:29:37;;;;;;;7.63;4.20;;;;;;;7.90;100.00;99029.00;31278800;28;20083;-80
2024/02/07 02:44:39;;;;;;;9.30;4.70;;;;;;;7.64;100.00;99019.25;31268535;28;20057;-80
2024/02/07 02:59:41;;;;;;;11.13;5.03;;;;;;;7.55;100.00;99011.00;31242032;28;20045;-78
2024/02/07 03:14:43;;;;;;;13.07;4.83;;;;;;;7.57;100.00;99012.06;31237664;28;20045;-78
2024/02/07 03:29:45;;;;;;;9.47;4.40;;;;;;;7.50;100.00;98996.06;31251265;28;20045;-79
2024/02/07 03:44:58;;;;;;;9.97;4.93;;;;;;;7.70;100.00;98988.59;31263933;28;20076;-80
2024/02/07 04:00:00;;;;;;;9.60;5.33;;;;;;;7.59;100.00;98982.69;31275357;28;20058;-80
2024/02/07 05:16:25;;;;;;;15.90;8.53;;;;;;;7.34;100.00;98982.56;31268903;28;20072;-80
2024/02/07 05:31:29;;;;;;;10.37;6.13;;;;;;;7.42;100.00;98986.63;31255575;28;20045;-79
2024/02/07 05:46:31;;;;;;;13.63;7.30;;;;;;;7.57;100.00;98987.75;31259421;28;20530;-79
2024/02/07 06:01:33;;;;;;;11.50;6.50;;;;;;;8.09;100.00;98997.59;31251693;28;20057;-80
2024/02/07 06:16:35;;;;;;;8.93;5.40;;;;;;;8.62;100.00;98998.84;31254310;28;20129;-80
2024/02/07 06:31:37;;;;;;;11.80;6.60;;;;;;;9.22;100.00;98982.69;31249343;28;20057;-79
2024/02/07 06:46:41;;;;;;;11.63;6.17;;;;;;;9.31;100.00;98974.69;31251788;28;20388;-83
2024/02/07 07:01:43;;;;;;;11.70;6.30;;;;;;;9.39;100.00;98992.22;31262934;28;20091;-80
2024/02/07 07:16:45;;;;;;;8.37;4.47;;;;;;;10.89;100.00;98968.69;31257628;28;20060;-78
2024/02/07 07:31:47;;;;;;;7.63;4.43;;;;;;;13.71;100.00;98971.31;31275729;28;20078;-80
2024/02/07 07:46:52;;;;;;;5.40;3.53;;;;;;;15.89;78.49;98973.44;31261493;28;20553;-81
2024/02/07 08:01:58;;;;;;;5.97;3.00;;;;;;;17.59;67.14;98962.00;31301314;28;20053;-81
2024/02/07 08:17:01;;;;;;;8.97;3.27;;;;;;;18.59;58.74;98966.97;31281398;28;20046;-81
2024/02/07 08:32:03;;;;;;;6.33;3.13;;;;;;;18.99;55.89;98953.94;31294689;28;20056;-84
2024/02/07 08:47:05;;;;;;;5.47;2.90;;;;;;;19.42;52.86;98957.06;31286977;28;20113;-84
2024/02/07 09:02:07;;;;;;;3.77;2.57;;;;;;;19.85;54.26;98924.34;31272039;28;20045;-83
2024/02/07 09:17:10;;;;;;;4.70;2.53;;;;;;;20.32;50.70;98918.75;31254464;28;20057;-80
2024/02/07 09:32:12;;;;;;;4.15;2.00;;;;;;;20.82;49.47;98909.31;31259449;28;20053;-85
2024/02/07 09:47:18;;;;;;;3.92;1.95;;;;;;;21.19;47.48;98900.38;31297268;28;20115;-85
2024/02/07 10:02:23;;;;;;;4.95;2.22;;;;;;;21.64;47.35;98875.75;31295159;28;20566;-84
2024/02/07 10:17:28;;;;;;;5.15;1.60;;;;;;;22.11;45.71;98868.53;31290886;28;20464;-85
2024/02/07 10:32:30;;;;;;;5.93;1.98;;;;;;;22.22;44.61;98853.75;31267884;28;20056;-84
2024/02/07 10:47:33;;;;;;;5.97;1.90;;;;;;;22.44;44.55;98847.09;31273466;28;20118;-82
2024/02/07 11:02:35;;;;;;;5.23;2.00;;;;;;;22.38;44.63;98840.94;31288447;28;20041;-84
2024/02/07 11:17:39;;;;;;;2.30;1.67;;;;;;;22.43;43.71;98820.75;31303330;28;20107;-80
2024/02/07 11:32:41;;;;;;;3.60;1.70;;;;;;;22.34;42.37;98813.59;31299766;28;20053;-82
2024/02/07 11:47:52;;;;;;;7.90;2.30;;;;;;;22.51;41.71;98766.28;31314982;28;20053;-93
2024/02/07 12:02:59;;;;;;;4.40;2.20;;;;;;;21.78;42.06;98777.84;31312950;28;20131;-88
2024/02/07 12:18:01;;;;;;;5.03;2.00;;;;;;;22.79;41.35;98774.81;31351414;28;20270;-85
2024/02/07 12:33:04;;;;;;;6.50;2.13;;;;;;;22.49;41.63;98771.59;31318235;28;20045;-82
2024/02/07 12:48:07;;;;;;;4.50;1.85;;;;;;;20.72;43.92;98779.31;31297881;28;20053;-82
2024/02/07 13:03:09;;;;;;;7.40;1.85;;;;;;;18.18;51.91;98768.19;31270263;28;20073;-81
2024/02/07 13:18:12;;;;;;;6.93;2.23;;;;;;;17.24;59.51;98756.66;31271343;28;20057;-82
2024/02/07 13:33:14;;;;;;;5.97;2.53;;;;;;;16.22;69.23;98747.78;31261824;28;20509;-82
2024/02/07 13:48:16;;;;;;;4.27;2.10;;;;;;;16.29;75.46;98759.03;31276217;28;20103;-80
2024/02/07 14:03:22;;;;;;;6.93;2.63;;;;;;;16.06;76.45;98756.66;31303740;28;20050;-79
2024/02/07 14:18:24;;;;;;;6.57;2.80;;;;;;;15.78;84.27;98743.50;31298820;28;20056;-81
2024/02/07 14:33:29;;;;;;;7.80;3.00;;;;;;;15.36;92.25;98735.91;31272581;28;20049;-81
2024/02/07 14:48:35;;;;;;;8.10;4.57;;;;;;;14.96;98.94;98725.81;31295000;28;20132;-83
2024/02/07 15:03:37;;;;;;;5.43;3.47;;;;;;;14.33;100.00;98725.56;31282997;28;20080;-81
2024/02/07 15:18:43;;;;;;;10.43;4.10;;;;;;;14.11;100.00;98722.53;31269558;28;20049;-80
2024/02/07 15:34:06;;;;;;;6.70;3.63;;;;;;;14.14;100.00;98721.56;31257720;28;20053;-82
2024/02/07 15:49:08;;;;;;;7.87;4.10;;;;;;;13.71;100.00;98726.63;31300345;28;20100;-78
2024/02/07 16:04:11;;;;;;;8.77;4.13;;;;;;;13.49;100.00;98720.81;31286705;28;20053;-81
2024/02/07 16:19:13;;;;;;;8.47;4.27;;;;;;;13.50;100.00;98716.88;31295217;28;20445;-77
2024/02/07 16:34:15;;;;;;;11.00;4.90;;;;;;;13.32;100.00;98713.13;31282212;28;20119;-78
2024/02/07 16:49:18;;;;;;;11.70;4.87;;;;;;;12.91;100.00;98711.38;31255363;28;20487;-82
2024/02/07 17:04:20;;;;;;;13.30;5.43;;;;;;;13.09;100.00;98700.31;31285504;28;20121;-83
2024/02/07 17:19:22;;;;;;;7.47;4.33;;;;;;;12.89;100.00;98702.94;31285958;28;20047;-83
2024/02/07 17:34:24;;;;;;;8.97;4.40;;;;;;;12.73;100.00;98706.84;31305600;28;20196;-80
2024/02/07 17:49:27;;;;;;;8.50;5.07;;;;;;;12.67;100.00;98705.22;31281108;28;20111;-83
2024/02/07 18:04:41;;;;;;;13.47;5.67;;;;;;;12.25;100.00;98719.72;31290048;28;20052;-86
2024/02/07 18:19:52;;;;;;;10.83;6.07;;;;;;;12.03;100.00;98730.13;31317288;28;20548;-84
2024/02/07 18:34:54;;;;;;;10.00;5.67;;;;;;;11.66;100.00;98726.75;31317184;28;20029;-85
2024/02/07 18:49:57;;;;;;;10.37;5.77;;;;;;;11.57;100.00;98719.41;31305525;28;20384;-86
2024/02/07 19:04:59;;;;;;;8.63;5.67;;;;;;;11.44;100.00;98721.53;31289343;28;20088;-89
2024/02/07 19:20:01;;;;;;;9.67;5.80;;;;;;;11.22;100.00;98711.63;31307870;28;20048;-81
2024/02/07 19:35:04;;;;;;;10.03;5.83;;;;;;;11.22;100.00;98703.47;31363775;28;20422;-88
2024/02/07 19:50:06;;;;;;;10.43;5.57;;;;;;;11.01;100.00;98706.38;31329956;28;20107;-88
2024/02/07 20:05:17;;;;;;;9.87;5.87;;;;;;;11.05;100.00;98691.44;31331993;28;20045;-87
2024/02/07 20:20:19;;;;;;;10.23;6.13;;;;;;;10.96;100.00;98699.59;31314446;28;20049;-88
2024/02/07 20:35:21;;;;;;;9.37;5.97;;;;;;;10.97;100.00;98694.91;31331798;28;20064;-86
2024/02/07 20:50:24;;;;;;;12.27;6.10;;;;;;;10.67;100.00;98704.72;31312566;28;20068;-90
2024/02/07 21:05:26;;;;;;;15.17;5.53;;;;;;;10.58;100.00;98702.78;31291792;28;20045;-84
2024/02/07 21:20:31;;;;;;;10.97;6.17;;;;;;;10.51;100.00;98724.78;31260576;28;20053;-80
2024/02/07 21:35:34;;;;;;;10.25;5.90;;;;;;;10.37;100.00;98730.78;31286904;28;20139;-81
2024/02/07 21:50:36;;;;;;;11.10;5.60;;;;;;;10.40;100.00;98740.72;31289959;28;20521;-83
2024/02/07 22:05:39;;;;;;;10.20;5.43;;;;;;;10.57;100.00;98729.16;31229254;28;20081;-80
2024/02/07 22:20:41;;;;;;;10.97;5.60;;;;;;;10.32;100.00;98759.25;31254457;28;20053;-82
2024/02/07 22:35:44;;;;;;;14.23;5.57;;;;;;;9.77;100.00;98777.25;31265654;28;20049;-82
2024/02/07 22:50:46;;;;;;;13.13;5.80;;;;;;;9.61;100.00;98780.94;31241365;28;20050;-83
2024/02/07 23:05:48;;;;;;;12.20;5.90;;;;;;;9.66;100.00;98793.91;31255320;28;20403;-81
2024/02/07 23:20:50;;;;;;;14.63;5.67;;;;;;;9.71;100.00;98817.72;31249996;28;20053;-82
2024/02/07 23:35:54;;;;;;;11.03;5.07;;;;;;;9.64;100.00;98812.56;31257583;28;20060;-83
2024/02/07 23:50:56;;;;;;;10.97;4.80;;;;;;;9.64;100.00;98815.28;31268156;28;20052;-82
